sensor_id;sensor_type;location;lat;lon;timestamp;temperature;humidity
4787;DHT22;62338;48.832;9.422;2023-07-24T00:00:05;18.00;99.90
4787;DHT22;62338;48.832;9.422;2023-07-24T00:02:07;17.90;99.90
4787;DHT22;62338;48.832;9.422;2023-07-24T00:04:08;18.00;99.90
4787;DHT22;62338;48.832;9.422;2023-07-24T00:06:10;18.00;99.90
4787;DHT22;62338;48.832;9.422;2023-07-24T00:08:12;18.00;99.90
4787;DHT22;62338;48.832;9.422;2023-07-24T00:10:13;18.10;99.90
4787;DHT22;62338;48.832;9.422;2023-07-24T00:12:15;18.20;99.90
4787;DHT22;62338;48.832;9.422;2023-07-24T00:14:17;18.20;99.90
4787;DHT22;62338;48.832;9.422;2023-07-24T00:16:19;18.10;99.90
4787;DHT22;62338;48.832;9.422;2023-07-24T00:18:21;17.80;99.90
4787;DHT22;62338;48.832;9.422;2023-07-24T00:20:23;17.60;99.90
4787;DHT22;62338;48.832;9.422;2023-07-24T00:22:26;17.40;99.90
4787;DHT22;62338;48.832;9.422;2023-07-24T00:24:29;17.20;99.90
4787;DHT22;62338;48.832;9.422;2023-07-24T00:26:31;17.10;99.90
4787;DHT22;62338;48.832;9.422;2023-07-24T00:28:33;17.10;99.90
4787;DHT22;62338;48.832;9.422;2023-07-24T00:30:35;17.10;99.90
4787;DHT22;62338;48.832;9.422;2023-07-24T00:32:37;17.10;99.90
4787;DHT22;62338;48.832;9.422;2023-07-24T00:34:38;17.10;99.90
4787;DHT22;62338;48.832;9.422;2023-07-24T00:36:40;17.00;99.90
4787;DHT22;62338;48.832;9.422;2023-07-24T00:38:42;17.00;99.90
4787;DHT22;62338;48.832;9.422;2023-07-24T00:40:44;16.90;99.90
4787;DHT22;62338;48.832;9.422;2023-07-24T00:42:48;16.70;99.90
4787;DHT22;62338;48.832;9.422;2023-07-24T00:44:50;16.50;99.90
4787;DHT22;62338;48.832;9.422;2023-07-24T00:46:53;16.40;99.90
4787;DHT22;62338;48.832;9.422;2023-07-24T00:48:55;16.40;99.90
4787;DHT22;62338;48.832;9.422;2023-07-24T00:50:57;16.30;99.90
4787;DHT22;62338;48.832;9.422;2023-07-24T00:52:58;16.20;99.90
4787;DHT22;62338;48.832;9.422;2023-07-24T00:55:00;16.20;99.90
4787;DHT22;62338;48.832;9.422;2023-07-24T00:57:03;16.10;99.90
4787;DHT22;62338;48.832;9.422;2023-07-24T00:59:06;16.10;99.90
4787;DHT22;62338;48.832;9.422;2023-07-24T01:01:08;16.10;99.90
4787;DHT22;62338;48.832;9.422;2023-07-24T01:03:12;16.10;99.90
4787;DHT22;62338;48.832;9.422;2023-07-24T01:05:14;16.10;99.90
4787;DHT22;62338;48.832;9.422;2023-07-24T01:07:20;16.20;99.90
4787;DHT22;62338;48.832;9.422;2023-07-24T01:09:22;16.10;99.90
4787;DHT22;62338;48.832;9.422;2023-07-24T01:11:37;16.10;99.90
4787;DHT22;62338;48.832;9.422;2023-07-24T01:13:44;16.10;99.90
4787;DHT22;62338;48.832;9.422;2023-07-24T01:15:56;16.10;99.90
4787;DHT22;62338;48.832;9.422;2023-07-24T01:18:09;16.10;99.90
4787;DHT22;62338;48.832;9.422;2023-07-24T01:20:12;16.10;99.90
4787;DHT22;62338;48.832;9.422;2023-07-24T01:24:35;16.10;99.90
4787;DHT22;62338;48.832;9.422;2023-07-24T01:26:38;16.10;99.90
4787;DHT22;62338;48.832;9.422;2023-07-24T01:28:40;16.10;99.90
4787;DHT22;62338;48.832;9.422;2023-07-24T01:30:42;16.10;99.90
4787;DHT22;62338;48.832;9.422;2023-07-24T01:32:44;16.10;99.90
4787;DHT22;62338;48.832;9.422;2023-07-24T01:34:46;16.00;99.90
4787;DHT22;62338;48.832;9.422;2023-07-24T01:36:49;16.00;99.90
4787;DHT22;62338;48.832;9.422;2023-07-24T01:38:52;16.00;99.90
4787;DHT22;62338;48.832;9.422;2023-07-24T01:40:55;16.00;99.90
4787;DHT22;62338;48.832;9.422;2023-07-24T01:42:57;16.00;99.90
4787;DHT22;62338;48.832;9.422;2023-07-24T01:45:03;16.10;99.90
4787;DHT22;62338;48.832;9.422;2023-07-24T01:47:05;16.10;99.90
4787;DHT22;62338;48.832;9.422;2023-07-24T01:49:07;16.20;99.90
4787;DHT22;62338;48.832;9.422;2023-07-24T01:51:09;16.30;99.90
4787;DHT22;62338;48.832;9.422;2023-07-24T01:53:11;16.40;99.90
4787;DHT22;62338;48.832;9.422;2023-07-24T01:55:12;16.40;99.90
4787;DHT22;62338;48.832;9.422;2023-07-24T01:57:14;16.50;99.90
4787;DHT22;62338;48.832;9.422;2023-07-24T01:59:16;16.50;99.90
4787;DHT22;62338;48.832;9.422;2023-07-24T02:01:18;16.60;99.90
4787;DHT22;62338;48.832;9.422;2023-07-24T02:03:20;16.60;99.90
4787;DHT22;62338;48.832;9.422;2023-07-24T02:05:22;16.60;99.90
4787;DHT22;62338;48.832;9.422;2023-07-24T02:07:24;16.60;99.90
4787;DHT22;62338;48.832;9.422;2023-07-24T02:09:26;16.70;99.90
4787;DHT22;62338;48.832;9.422;2023-07-24T02:11:27;16.70;99.90
4787;DHT22;62338;48.832;9.422;2023-07-24T02:13:29;16.80;99.90
4787;DHT22;62338;48.832;9.422;2023-07-24T02:15:31;16.70;99.90
4787;DHT22;62338;48.832;9.422;2023-07-24T02:17:33;16.70;99.90
4787;DHT22;62338;48.832;9.422;2023-07-24T02:19:34;16.70;99.90
4787;DHT22;62338;48.832;9.422;2023-07-24T02:21:36;16.70;99.90
4787;DHT22;62338;48.832;9.422;2023-07-24T02:23:38;16.70;99.90
4787;DHT22;62338;48.832;9.422;2023-07-24T02:25:39;16.70;99.90
4787;DHT22;62338;48.832;9.422;2023-07-24T02:27:41;16.70;99.90
4787;DHT22;62338;48.832;9.422;2023-07-24T02:29:43;16.70;99.90
4787;DHT22;62338;48.832;9.422;2023-07-24T02:31:45;16.70;99.90
4787;DHT22;62338;48.832;9.422;2023-07-24T02:33:47;16.70;99.90
4787;DHT22;62338;48.832;9.422;2023-07-24T02:35:51;16.70;99.90
4787;DHT22;62338;48.832;9.422;2023-07-24T02:37:53;16.70;99.90
4787;DHT22;62338;48.832;9.422;2023-07-24T02:39:55;16.80;99.90
4787;DHT22;62338;48.832;9.422;2023-07-24T02:41:56;16.70;99.90
4787;DHT22;62338;48.832;9.422;2023-07-24T02:43:58;16.70;99.90
4787;DHT22;62338;48.832;9.422;2023-07-24T02:46:01;16.70;99.90
4787;DHT22;62338;48.832;9.422;2023-07-24T02:48:04;16.70;99.90
4787;DHT22;62338;48.832;9.422;2023-07-24T02:50:06;16.80;99.90
4787;DHT22;62338;48.832;9.422;2023-07-24T02:52:08;16.80;99.90
4787;DHT22;62338;48.832;9.422;2023-07-24T02:54:10;16.80;99.90
4787;DHT22;62338;48.832;9.422;2023-07-24T02:56:12;16.80;99.90
4787;DHT22;62338;48.832;9.422;2023-07-24T02:58:14;17.00;99.90
4787;DHT22;62338;48.832;9.422;2023-07-24T03:00:16;17.10;99.90
4787;DHT22;62338;48.832;9.422;2023-07-24T03:02:17;17.20;99.90
4787;DHT22;62338;48.832;9.422;2023-07-24T03:04:19;17.30;99.90
4787;DHT22;62338;48.832;9.422;2023-07-24T03:06:21;17.40;99.90
4787;DHT22;62338;48.832;9.422;2023-07-24T03:08:23;17.50;99.90
4787;DHT22;62338;48.832;9.422;2023-07-24T03:10:25;17.50;99.90
4787;DHT22;62338;48.832;9.422;2023-07-24T03:12:26;17.50;99.90
4787;DHT22;62338;48.832;9.422;2023-07-24T03:14:28;17.50;99.90
4787;DHT22;62338;48.832;9.422;2023-07-24T03:16:30;17.60;99.90
4787;DHT22;62338;48.832;9.422;2023-07-24T03:18:32;17.60;99.90
4787;DHT22;62338;48.832;9.422;2023-07-24T03:20:34;17.60;99.90
4787;DHT22;62338;48.832;9.422;2023-07-24T03:22:36;17.60;99.90
4787;DHT22;62338;48.832;9.422;2023-07-24T03:24:37;17.70;99.90
4787;DHT22;62338;48.832;9.422;2023-07-24T03:26:39;17.70;99.90
4787;DHT22;62338;48.832;9.422;2023-07-24T03:28:41;17.70;99.90
4787;DHT22;62338;48.832;9.422;2023-07-24T03:30:43;17.70;99.90
4787;DHT22;62338;48.832;9.422;2023-07-24T03:32:45;17.70;99.90
4787;DHT22;62338;48.832;9.422;2023-07-24T03:34:47;17.80;99.90
4787;DHT22;62338;48.832;9.422;2023-07-24T03:36:48;17.80;99.90
4787;DHT22;62338;48.832;9.422;2023-07-24T03:38:50;17.80;99.90
4787;DHT22;62338;48.832;9.422;2023-07-24T03:40:52;17.80;99.90
4787;DHT22;62338;48.832;9.422;2023-07-24T03:42:54;17.80;99.90
4787;DHT22;62338;48.832;9.422;2023-07-24T03:44:56;17.70;99.90
4787;DHT22;62338;48.832;9.422;2023-07-24T03:46:58;17.70;99.90
4787;DHT22;62338;48.832;9.422;2023-07-24T03:49:00;17.70;99.90
4787;DHT22;62338;48.832;9.422;2023-07-24T03:51:02;17.70;99.90
4787;DHT22;62338;48.832;9.422;2023-07-24T03:53:04;17.80;99.90
4787;DHT22;62338;48.832;9.422;2023-07-24T03:55:06;17.80;99.90
4787;DHT22;62338;48.832;9.422;2023-07-24T03:57:09;17.90;99.90
4787;DHT22;62338;48.832;9.422;2023-07-24T03:59:11;18.00;99.90
4787;DHT22;62338;48.832;9.422;2023-07-24T04:01:13;18.00;99.90
4787;DHT22;62338;48.832;9.422;2023-07-24T04:03:15;18.10;99.90
4787;DHT22;62338;48.832;9.422;2023-07-24T04:05:17;18.20;99.90
4787;DHT22;62338;48.832;9.422;2023-07-24T04:07:19;18.20;99.90
4787;DHT22;62338;48.832;9.422;2023-07-24T04:09:21;18.20;99.90
4787;DHT22;62338;48.832;9.422;2023-07-24T04:11:22;18.30;99.90
4787;DHT22;62338;48.832;9.422;2023-07-24T04:13:24;18.20;99.90
4787;DHT22;62338;48.832;9.422;2023-07-24T04:15:26;18.30;99.90
4787;DHT22;62338;48.832;9.422;2023-07-24T04:17:28;18.30;99.90
4787;DHT22;62338;48.832;9.422;2023-07-24T04:19:30;18.30;99.90
4787;DHT22;62338;48.832;9.422;2023-07-24T04:21:31;18.40;99.90
4787;DHT22;62338;48.832;9.422;2023-07-24T04:23:33;18.40;99.90
4787;DHT22;62338;48.832;9.422;2023-07-24T04:25:35;18.40;99.90
4787;DHT22;62338;48.832;9.422;2023-07-24T04:27:37;18.50;99.90
4787;DHT22;62338;48.832;9.422;2023-07-24T04:29:38;18.50;99.90
4787;DHT22;62338;48.832;9.422;2023-07-24T04:31:40;18.50;99.90
4787;DHT22;62338;48.832;9.422;2023-07-24T04:33:42;18.50;99.90
4787;DHT22;62338;48.832;9.422;2023-07-24T04:35:48;18.60;99.90
4787;DHT22;62338;48.832;9.422;2023-07-24T04:37:50;18.60;99.90
4787;DHT22;62338;48.832;9.422;2023-07-24T04:39:52;18.70;99.90
4787;DHT22;62338;48.832;9.422;2023-07-24T04:41:54;18.80;99.90
4787;DHT22;62338;48.832;9.422;2023-07-24T04:43:56;18.90;99.90
4787;DHT22;62338;48.832;9.422;2023-07-24T04:45:58;19.00;99.90
4787;DHT22;62338;48.832;9.422;2023-07-24T04:47:59;19.10;99.90
4787;DHT22;62338;48.832;9.422;2023-07-24T04:50:01;19.10;99.90
4787;DHT22;62338;48.832;9.422;2023-07-24T04:52:03;19.20;99.90
4787;DHT22;62338;48.832;9.422;2023-07-24T04:54:05;19.20;99.90
4787;DHT22;62338;48.832;9.422;2023-07-24T04:56:07;19.30;99.90
4787;DHT22;62338;48.832;9.422;2023-07-24T04:58:08;19.30;99.90
4787;DHT22;62338;48.832;9.422;2023-07-24T05:00:11;19.30;99.90
4787;DHT22;62338;48.832;9.422;2023-07-24T05:02:13;19.40;99.90
4787;DHT22;62338;48.832;9.422;2023-07-24T05:04:14;19.30;99.90
4787;DHT22;62338;48.832;9.422;2023-07-24T05:06:16;19.40;99.90
4787;DHT22;62338;48.832;9.422;2023-07-24T05:08:18;19.50;99.90
4787;DHT22;62338;48.832;9.422;2023-07-24T05:10:20;19.50;99.90
4787;DHT22;62338;48.832;9.422;2023-07-24T05:12:21;19.50;99.90
4787;DHT22;62338;48.832;9.422;2023-07-24T05:14:23;19.60;99.90
4787;DHT22;62338;48.832;9.422;2023-07-24T05:16:25;19.50;99.90
4787;DHT22;62338;48.832;9.422;2023-07-24T05:18:27;19.60;99.90
4787;DHT22;62338;48.832;9.422;2023-07-24T05:20:29;19.70;99.90
4787;DHT22;62338;48.832;9.422;2023-07-24T05:22:30;19.80;99.90
4787;DHT22;62338;48.832;9.422;2023-07-24T05:24:32;19.90;99.90
4787;DHT22;62338;48.832;9.422;2023-07-24T05:26:34;20.00;99.90
4787;DHT22;62338;48.832;9.422;2023-07-24T05:28:36;20.20;99.90
4787;DHT22;62338;48.832;9.422;2023-07-24T05:30:37;20.30;99.90
4787;DHT22;62338;48.832;9.422;2023-07-24T05:32:39;20.50;99.90
4787;DHT22;62338;48.832;9.422;2023-07-24T05:34:41;20.50;99.90
4787;DHT22;62338;48.832;9.422;2023-07-24T05:36:46;20.50;99.90
4787;DHT22;62338;48.832;9.422;2023-07-24T05:38:48;20.60;99.90
4787;DHT22;62338;48.832;9.422;2023-07-24T05:40:59;20.60;99.90
4787;DHT22;62338;48.832;9.422;2023-07-24T05:43:01;20.50;99.90
4787;DHT22;62338;48.832;9.422;2023-07-24T05:45:04;20.50;99.90
4787;DHT22;62338;48.832;9.422;2023-07-24T05:47:06;20.50;99.90
4787;DHT22;62338;48.832;9.422;2023-07-24T05:49:08;20.40;99.90
4787;DHT22;62338;48.832;9.422;2023-07-24T05:51:09;20.30;99.90
4787;DHT22;62338;48.832;9.422;2023-07-24T05:53:11;20.20;99.90
4787;DHT22;62338;48.832;9.422;2023-07-24T05:55:13;19.90;99.90
4787;DHT22;62338;48.832;9.422;2023-07-24T05:57:15;19.80;99.90
4787;DHT22;62338;48.832;9.422;2023-07-24T05:59:16;19.80;99.90
4787;DHT22;62338;48.832;9.422;2023-07-24T06:01:18;19.70;99.90
4787;DHT22;62338;48.832;9.422;2023-07-24T06:03:20;19.70;99.90
4787;DHT22;62338;48.832;9.422;2023-07-24T06:05:22;19.80;99.90
4787;DHT22;62338;48.832;9.422;2023-07-24T06:07:24;19.80;99.90
4787;DHT22;62338;48.832;9.422;2023-07-24T06:09:26;19.70;99.90
4787;DHT22;62338;48.832;9.422;2023-07-24T06:11:28;19.70;99.90
4787;DHT22;62338;48.832;9.422;2023-07-24T06:13:30;19.70;99.90
4787;DHT22;62338;48.832;9.422;2023-07-24T06:15:32;19.60;99.90
4787;DHT22;62338;48.832;9.422;2023-07-24T06:17:33;19.60;99.90
4787;DHT22;62338;48.832;9.422;2023-07-24T06:19:35;19.60;99.90
4787;DHT22;62338;48.832;9.422;2023-07-24T06:21:37;19.60;99.90
4787;DHT22;62338;48.832;9.422;2023-07-24T06:23:39;19.60;99.90
4787;DHT22;62338;48.832;9.422;2023-07-24T06:25:41;19.60;99.90
4787;DHT22;62338;48.832;9.422;2023-07-24T06:27:43;19.60;99.90
4787;DHT22;62338;48.832;9.422;2023-07-24T06:29:45;19.50;99.90
4787;DHT22;62338;48.832;9.422;2023-07-24T06:31:49;19.50;99.90
4787;DHT22;62338;48.832;9.422;2023-07-24T06:33:51;19.60;99.90
4787;DHT22;62338;48.832;9.422;2023-07-24T06:35:53;19.60;99.90
4787;DHT22;62338;48.832;9.422;2023-07-24T06:37:55;19.50;99.90
4787;DHT22;62338;48.832;9.422;2023-07-24T06:39:56;19.60;99.90
4787;DHT22;62338;48.832;9.422;2023-07-24T06:41:58;19.70;99.90
4787;DHT22;62338;48.832;9.422;2023-07-24T06:44:00;19.70;99.90
4787;DHT22;62338;48.832;9.422;2023-07-24T06:46:02;19.70;99.90
4787;DHT22;62338;48.832;9.422;2023-07-24T06:48:04;19.80;99.90
4787;DHT22;62338;48.832;9.422;2023-07-24T06:50:06;19.90;99.90
4787;DHT22;62338;48.832;9.422;2023-07-24T06:52:08;20.00;99.90
4787;DHT22;62338;48.832;9.422;2023-07-24T06:54:10;20.10;99.90
4787;DHT22;62338;48.832;9.422;2023-07-24T06:56:12;20.30;99.90
4787;DHT22;62338;48.832;9.422;2023-07-24T06:58:15;20.40;99.90
4787;DHT22;62338;48.832;9.422;2023-07-24T07:00:17;20.60;99.90
4787;DHT22;62338;48.832;9.422;2023-07-24T07:02:19;20.70;99.90
4787;DHT22;62338;48.832;9.422;2023-07-24T07:04:20;20.70;99.90
4787;DHT22;62338;48.832;9.422;2023-07-24T07:06:22;20.60;99.90
4787;DHT22;62338;48.832;9.422;2023-07-24T07:08:27;20.70;99.90
4787;DHT22;62338;48.832;9.422;2023-07-24T07:10:30;20.70;99.90
4787;DHT22;62338;48.832;9.422;2023-07-24T07:12:32;20.60;99.90
4787;DHT22;62338;48.832;9.422;2023-07-24T07:14:34;20.60;99.90
4787;DHT22;62338;48.832;9.422;2023-07-24T07:16:36;20.50;99.90
4787;DHT22;62338;48.832;9.422;2023-07-24T07:18:38;20.40;99.90
4787;DHT22;62338;48.832;9.422;2023-07-24T07:20:45;20.30;99.90
4787;DHT22;62338;48.832;9.422;2023-07-24T07:22:48;20.30;99.90
4787;DHT22;62338;48.832;9.422;2023-07-24T07:24:49;20.30;99.90
4787;DHT22;62338;48.832;9.422;2023-07-24T07:26:51;20.40;99.90
4787;DHT22;62338;48.832;9.422;2023-07-24T07:28:53;20.50;99.90
4787;DHT22;62338;48.832;9.422;2023-07-24T07:30:55;20.50;99.90
4787;DHT22;62338;48.832;9.422;2023-07-24T07:32:57;20.60;99.90
4787;DHT22;62338;48.832;9.422;2023-07-24T07:34:58;20.80;99.90
4787;DHT22;62338;48.832;9.422;2023-07-24T07:37:00;20.70;99.90
4787;DHT22;62338;48.832;9.422;2023-07-24T07:39:02;20.70;99.90
4787;DHT22;62338;48.832;9.422;2023-07-24T07:41:04;20.70;99.90
4787;DHT22;62338;48.832;9.422;2023-07-24T07:43:07;20.70;99.90
4787;DHT22;62338;48.832;9.422;2023-07-24T07:45:09;20.70;99.90
4787;DHT22;62338;48.832;9.422;2023-07-24T07:47:10;20.60;99.90
4787;DHT22;62338;48.832;9.422;2023-07-24T07:49:13;20.70;99.90
4787;DHT22;62338;48.832;9.422;2023-07-24T07:51:15;20.70;99.90
4787;DHT22;62338;48.832;9.422;2023-07-24T07:53:16;20.70;99.90
4787;DHT22;62338;48.832;9.422;2023-07-24T07:55:19;20.70;99.90
4787;DHT22;62338;48.832;9.422;2023-07-24T07:57:21;20.80;99.90
4787;DHT22;62338;48.832;9.422;2023-07-24T07:59:22;20.80;99.90
4787;DHT22;62338;48.832;9.422;2023-07-24T08:01:24;20.90;99.90
4787;DHT22;62338;48.832;9.422;2023-07-24T08:03:26;20.90;99.90
4787;DHT22;62338;48.832;9.422;2023-07-24T08:05:28;21.00;99.90
4787;DHT22;62338;48.832;9.422;2023-07-24T08:07:30;21.10;99.90
4787;DHT22;62338;48.832;9.422;2023-07-24T08:09:32;21.10;99.90
4787;DHT22;62338;48.832;9.422;2023-07-24T08:11:35;21.00;99.90
4787;DHT22;62338;48.832;9.422;2023-07-24T08:13:37;21.00;99.90
4787;DHT22;62338;48.832;9.422;2023-07-24T08:15:38;20.70;99.90
4787;DHT22;62338;48.832;9.422;2023-07-24T08:17:40;20.50;99.90
4787;DHT22;62338;48.832;9.422;2023-07-24T08:19:42;20.30;99.90
4787;DHT22;62338;48.832;9.422;2023-07-24T08:21:44;20.10;99.90
4787;DHT22;62338;48.832;9.422;2023-07-24T08:23:46;19.90;99.90
4787;DHT22;62338;48.832;9.422;2023-07-24T08:25:52;19.80;99.90
4787;DHT22;62338;48.832;9.422;2023-07-24T08:27:54;19.70;99.90
4787;DHT22;62338;48.832;9.422;2023-07-24T08:30:01;19.50;99.90
4787;DHT22;62338;48.832;9.422;2023-07-24T08:32:04;19.40;99.90
4787;DHT22;62338;48.832;9.422;2023-07-24T08:34:06;19.20;99.90
4787;DHT22;62338;48.832;9.422;2023-07-24T08:36:08;19.00;99.90
4787;DHT22;62338;48.832;9.422;2023-07-24T08:38:10;18.60;99.90
4787;DHT22;62338;48.832;9.422;2023-07-24T08:40:11;18.30;99.90
4787;DHT22;62338;48.832;9.422;2023-07-24T08:42:14;18.10;99.90
4787;DHT22;62338;48.832;9.422;2023-07-24T08:44:16;17.90;99.90
4787;DHT22;62338;48.832;9.422;2023-07-24T08:46:18;17.70;99.90
4787;DHT22;62338;48.832;9.422;2023-07-24T08:48:20;17.60;99.90
4787;DHT22;62338;48.832;9.422;2023-07-24T08:50:23;17.60;99.90
4787;DHT22;62338;48.832;9.422;2023-07-24T08:52:26;17.60;99.90
4787;DHT22;62338;48.832;9.422;2023-07-24T08:54:36;17.70;99.90
4787;DHT22;62338;48.832;9.422;2023-07-24T08:56:39;17.70;99.90
4787;DHT22;62338;48.832;9.422;2023-07-24T08:58:42;17.80;99.90
4787;DHT22;62338;48.832;9.422;2023-07-24T09:00:44;17.80;99.90
4787;DHT22;62338;48.832;9.422;2023-07-24T09:02:46;17.90;99.90
4787;DHT22;62338;48.832;9.422;2023-07-24T09:04:48;17.90;99.90
4787;DHT22;62338;48.832;9.422;2023-07-24T09:06:50;18.00;99.90
4787;DHT22;62338;48.832;9.422;2023-07-24T09:08:54;18.00;99.90
4787;DHT22;62338;48.832;9.422;2023-07-24T09:10:56;18.00;99.90
4787;DHT22;62338;48.832;9.422;2023-07-24T09:12:57;18.00;99.90
4787;DHT22;62338;48.832;9.422;2023-07-24T09:15:03;18.20;99.90
4787;DHT22;62338;48.832;9.422;2023-07-24T09:17:09;18.30;99.90
4787;DHT22;62338;48.832;9.422;2023-07-24T09:19:17;18.50;99.90
4787;DHT22;62338;48.832;9.422;2023-07-24T09:21:31;18.50;99.90
4787;DHT22;62338;48.832;9.422;2023-07-24T09:23:33;18.60;99.90
4787;DHT22;62338;48.832;9.422;2023-07-24T09:25:36;18.60;99.90
4787;DHT22;62338;48.832;9.422;2023-07-24T09:27:38;18.70;99.90
4787;DHT22;62338;48.832;9.422;2023-07-24T09:29:40;19.10;99.90
4787;DHT22;62338;48.832;9.422;2023-07-24T09:31:42;19.30;99.90
4787;DHT22;62338;48.832;9.422;2023-07-24T09:33:45;19.60;99.90
4787;DHT22;62338;48.832;9.422;2023-07-24T09:35:57;20.00;99.90
4787;DHT22;62338;48.832;9.422;2023-07-24T09:38:10;20.30;99.90
4787;DHT22;62338;48.832;9.422;2023-07-24T09:40:15;20.60;99.90
4787;DHT22;62338;48.832;9.422;2023-07-24T09:42:17;21.00;99.90
4787;DHT22;62338;48.832;9.422;2023-07-24T09:44:18;21.10;99.90
4787;DHT22;62338;48.832;9.422;2023-07-24T09:46:20;20.90;99.90
4787;DHT22;62338;48.832;9.422;2023-07-24T09:48:26;20.80;99.90
4787;DHT22;62338;48.832;9.422;2023-07-24T09:50:31;20.90;99.90
4787;DHT22;62338;48.832;9.422;2023-07-24T09:52:35;20.60;99.90
4787;DHT22;62338;48.832;9.422;2023-07-24T09:54:46;20.50;99.90
4787;DHT22;62338;48.832;9.422;2023-07-24T09:56:51;20.20;99.90
4787;DHT22;62338;48.832;9.422;2023-07-24T09:59:04;20.10;99.90
4787;DHT22;62338;48.832;9.422;2023-07-24T10:01:08;19.90;99.90
4787;DHT22;62338;48.832;9.422;2023-07-24T10:03:10;19.70;99.90
4787;DHT22;62338;48.832;9.422;2023-07-24T10:05:12;19.60;99.90
4787;DHT22;62338;48.832;9.422;2023-07-24T10:07:14;19.50;99.90
4787;DHT22;62338;48.832;9.422;2023-07-24T10:09:17;19.40;99.90
4787;DHT22;62338;48.832;9.422;2023-07-24T10:11:20;19.30;99.90
4787;DHT22;62338;48.832;9.422;2023-07-24T10:13:25;19.20;99.90
4787;DHT22;62338;48.832;9.422;2023-07-24T10:15:27;19.20;99.90
4787;DHT22;62338;48.832;9.422;2023-07-24T10:17:37;19.20;99.90
4787;DHT22;62338;48.832;9.422;2023-07-24T10:19:41;19.20;99.90
4787;DHT22;62338;48.832;9.422;2023-07-24T10:21:46;19.10;99.90
4787;DHT22;62338;48.832;9.422;2023-07-24T10:23:48;19.10;99.90
4787;DHT22;62338;48.832;9.422;2023-07-24T10:25:51;19.00;99.90
4787;DHT22;62338;48.832;9.422;2023-07-24T10:27:54;18.90;99.90
4787;DHT22;62338;48.832;9.422;2023-07-24T10:30:04;18.80;99.90
4787;DHT22;62338;48.832;9.422;2023-07-24T10:32:26;18.70;99.90
4787;DHT22;62338;48.832;9.422;2023-07-24T10:34:38;18.70;99.90
4787;DHT22;62338;48.832;9.422;2023-07-24T10:36:40;18.50;99.90
4787;DHT22;62338;48.832;9.422;2023-07-24T10:38:43;18.40;99.90
4787;DHT22;62338;48.832;9.422;2023-07-24T10:40:47;18.40;99.90
4787;DHT22;62338;48.832;9.422;2023-07-24T10:43:06;18.30;99.90
4787;DHT22;62338;48.832;9.422;2023-07-24T10:45:08;18.20;99.90
4787;DHT22;62338;48.832;9.422;2023-07-24T10:47:10;18.10;99.90
4787;DHT22;62338;48.832;9.422;2023-07-24T10:49:13;18.00;99.90
4787;DHT22;62338;48.832;9.422;2023-07-24T10:51:14;17.90;99.90
4787;DHT22;62338;48.832;9.422;2023-07-24T10:53:19;17.90;99.90
4787;DHT22;62338;48.832;9.422;2023-07-24T10:55:22;17.80;99.90
4787;DHT22;62338;48.832;9.422;2023-07-24T10:57:29;17.80;99.90
4787;DHT22;62338;48.832;9.422;2023-07-24T10:59:38;17.80;99.90
4787;DHT22;62338;48.832;9.422;2023-07-24T11:01:40;17.70;99.90
4787;DHT22;62338;48.832;9.422;2023-07-24T11:03:43;17.70;99.90
4787;DHT22;62338;48.832;9.422;2023-07-24T11:05:46;17.70;99.90
4787;DHT22;62338;48.832;9.422;2023-07-24T11:07:48;17.60;99.90
4787;DHT22;62338;48.832;9.422;2023-07-24T11:09:50;17.60;99.90
4787;DHT22;62338;48.832;9.422;2023-07-24T11:11:52;17.50;99.90
4787;DHT22;62338;48.832;9.422;2023-07-24T11:13:54;17.50;99.90
4787;DHT22;62338;48.832;9.422;2023-07-24T11:15:56;17.50;99.90
4787;DHT22;62338;48.832;9.422;2023-07-24T11:17:59;17.50;99.90
4787;DHT22;62338;48.832;9.422;2023-07-24T11:20:08;17.50;99.90
4787;DHT22;62338;48.832;9.422;2023-07-24T11:22:11;17.40;99.90
4787;DHT22;62338;48.832;9.422;2023-07-24T11:24:12;17.40;99.90
4787;DHT22;62338;48.832;9.422;2023-07-24T11:26:14;17.40;99.90
4787;DHT22;62338;48.832;9.422;2023-07-24T11:28:17;17.30;99.90
4787;DHT22;62338;48.832;9.422;2023-07-24T11:30:20;17.30;99.90
4787;DHT22;62338;48.832;9.422;2023-07-24T11:32:22;17.30;99.90
4787;DHT22;62338;48.832;9.422;2023-07-24T11:34:24;17.30;99.90
4787;DHT22;62338;48.832;9.422;2023-07-24T11:36:26;17.30;99.90
4787;DHT22;62338;48.832;9.422;2023-07-24T11:38:28;17.20;99.90
4787;DHT22;62338;48.832;9.422;2023-07-24T11:40:41;17.20;99.90
4787;DHT22;62338;48.832;9.422;2023-07-24T11:42:43;17.30;99.90
4787;DHT22;62338;48.832;9.422;2023-07-24T11:44:46;17.30;99.90
4787;DHT22;62338;48.832;9.422;2023-07-24T11:46:47;17.30;99.90
4787;DHT22;62338;48.832;9.422;2023-07-24T11:48:49;17.50;99.90
4787;DHT22;62338;48.832;9.422;2023-07-24T11:50:57;17.60;99.90
4787;DHT22;62338;48.832;9.422;2023-07-24T11:52:59;17.80;99.90
4787;DHT22;62338;48.832;9.422;2023-07-24T11:55:00;18.10;99.90
4787;DHT22;62338;48.832;9.422;2023-07-24T11:57:16;18.50;99.90
4787;DHT22;62338;48.832;9.422;2023-07-24T11:59:18;19.10;99.90
4787;DHT22;62338;48.832;9.422;2023-07-24T12:01:20;19.40;99.90
4787;DHT22;62338;48.832;9.422;2023-07-24T12:03:26;19.80;99.90
4787;DHT22;62338;48.832;9.422;2023-07-24T12:05:29;19.80;99.90
4787;DHT22;62338;48.832;9.422;2023-07-24T12:07:33;19.50;99.90
4787;DHT22;62338;48.832;9.422;2023-07-24T12:09:35;19.10;99.90
4787;DHT22;62338;48.832;9.422;2023-07-24T12:11:43;18.80;99.90
4787;DHT22;62338;48.832;9.422;2023-07-24T12:13:47;18.70;99.90
4787;DHT22;62338;48.832;9.422;2023-07-24T12:15:52;18.50;99.90
4787;DHT22;62338;48.832;9.422;2023-07-24T12:17:54;18.20;99.90
4787;DHT22;62338;48.832;9.422;2023-07-24T12:19:56;18.10;99.90
4787;DHT22;62338;48.832;9.422;2023-07-24T12:21:58;17.90;99.90
4787;DHT22;62338;48.832;9.422;2023-07-24T12:24:00;17.80;99.90
4787;DHT22;62338;48.832;9.422;2023-07-24T12:26:02;17.80;99.90
4787;DHT22;62338;48.832;9.422;2023-07-24T12:28:03;17.90;99.90
4787;DHT22;62338;48.832;9.422;2023-07-24T12:30:06;18.00;99.90
4787;DHT22;62338;48.832;9.422;2023-07-24T12:32:08;18.00;99.90
4787;DHT22;62338;48.832;9.422;2023-07-24T12:34:10;18.00;99.90
4787;DHT22;62338;48.832;9.422;2023-07-24T12:36:11;18.10;99.90
4787;DHT22;62338;48.832;9.422;2023-07-24T12:38:13;18.20;99.90
4787;DHT22;62338;48.832;9.422;2023-07-24T12:40:15;18.40;99.90
4787;DHT22;62338;48.832;9.422;2023-07-24T12:42:17;18.70;99.90
4787;DHT22;62338;48.832;9.422;2023-07-24T12:44:19;18.80;99.90
4787;DHT22;62338;48.832;9.422;2023-07-24T12:46:20;18.90;99.90
4787;DHT22;62338;48.832;9.422;2023-07-24T12:48:22;19.10;99.90
4787;DHT22;62338;48.832;9.422;2023-07-24T12:50:24;19.20;99.90
4787;DHT22;62338;48.832;9.422;2023-07-24T12:52:26;19.30;99.90
4787;DHT22;62338;48.832;9.422;2023-07-24T12:54:28;19.30;99.90
4787;DHT22;62338;48.832;9.422;2023-07-24T12:56:50;19.20;99.90
4787;DHT22;62338;48.832;9.422;2023-07-24T12:58:52;19.20;99.90
4787;DHT22;62338;48.832;9.422;2023-07-24T13:00:54;19.20;99.90
4787;DHT22;62338;48.832;9.422;2023-07-24T13:02:56;19.50;99.90
4787;DHT22;62338;48.832;9.422;2023-07-24T13:04:58;19.90;99.90
4787;DHT22;62338;48.832;9.422;2023-07-24T13:07:01;20.20;99.90
4787;DHT22;62338;48.832;9.422;2023-07-24T13:09:03;20.30;99.90